A- A+ FrançaisEnglishEspañol中国

le plus proche LFBT Tarbes-Lourdes-PyrénéesLFQC Luneville-Croismare LFKJ Ajaccio-Napoléon-BonaparteLFKO Propriano Tavaria

manche à air

La météo aéronautique pour les pilotes, la préparation du vol avec les METAR (METeorological Aerodrome Report, message d'observation des conditions météorologiques pour l'aviation) et Les TAF (Terminal Aerodrome Forecast : message de prévision à court terme des conditions météorologiques pour l'aviation). Et les autres ressources comme les VAC (Visual Approch Chart) et les NOTAM (Notice To Airman) pour préprer les vols.

Aéroport Big Trout Lake (Canada) / OACI CYTL/ IATA YTL

L'altitude de l'aéroport Big Trout Lake est de 222 m=728 ft. Il est situé à proximité de Big Trout Lake (Canada). La météo générale à 5 jours est disponible pour Big Trout Lake situé à 15.5 km.

METAR de l'aéroport Big Trout Lake - CYTL

CYTL 202300Z AUTO 00000KT 9SM CLR 03/02 A2981 RMK SLP109

Décodage du METAR de l'aéroport Big Trout Lake (CA)

METAR émis par CYTL le lundi 21 octobre 2019 à 23:00 heure TU. C'est un METAR généré automatiquement. Attention ce METAR est obsolète car il a été émis il y a 9 heure et 26 minutes.

La visibilité est de 14.5 km=9 sm.

La température est de 3°C=37 °F et le point rosée est de 2°C=36 °F . Ce qui correspond à 93% d'humidité relative.

Le QNH est de 1009 hPa=29.8 inHg

Vent de 0 kt=0 km/h, orienté à 0°.

Pas de nuages.

RMK SLP109

TAF de l'aéroport Big Trout Lake - CYTL

CYTL 201938Z 2020/2108 28007KT P6SM OVC020 TEMPO 2020/2021 BKN025 FM202100 23006KT P6SM BKN020 BECMG 2021/2023 17005KT FEW020 FM210200 16008KT P6SM SCT070 RMK FCST BASED ON AUTO OBS. NXT FCST BY 210200Z

CYTL 201938Z 2020/2108 28007KT P6SM couverture nuageuse soudée à 020 temporairement 2020/2021 couverture nuageuse fragmentée à 025 FM202100 23006KT P6SM couverture nuageuse fragmentée à 020 devenant 2021/2023 17005KT quelques nuages à 020 FM210200 16008KT P6SM nuages épars à 070 remarques trombe ST BASED ON AUTO OBS. NXT trombe ST BY 210200Z

Aéroport à proximité de Big Trout Lake

Météo générale à 5 jours à Big Trout Lake (15.5 km)CYAQ Aéroport Kasabonika (89 km)CZMD Aéroport Muskrat Dam (130 km)CZRJ Aéroport Round Lake (Weagamow Lake) (135 km)CZPB Aéroport Sachigo Lake (151 km)CYWP Aéroport Webquie (193 km)CYLH Aéroport Lansdowne House (223 km)

Vue aérienne de l'aéroport Big Trout Lake

NOTAM de l'aéroport Big Trout Lake

Les NOTAM sont fournis sans aucune garantie de leur actualité. Le pilote est le seul responsable de la vérification de sa validité avant de l'utiliser opérationnellement pour préparer un vol ou l'utiliser lors de sa navigation.

NOTAM Runway (à partir du dimanche 20 octobre 2019 à 20:32 jusqu'au lundi 21 octobre 2019 à 22:30)

J0460/19 NOTAMN
Q) CZWG/QMRHW/IV/NBO/A/000/999/5349N08954W005
A) CYTL B) 1910202032 C) 1910202230
E) PACKING RWY 14/32
CREW WILL VACATE WITH 10 MIN PN 123.2
CREATED: 20 Oct 2019 20:32:00
SOURCE: CYHQYNYX

Sources des données